createdAt,value
2023-04-27T00:00:20.113Z,1864.00
2023-04-27T00:01:20.174Z,1866.00
2023-04-27T00:02:20.364Z,1848.00
2023-04-27T00:03:20.403Z,1865.00
2023-04-27T00:04:20.517Z,1851.00
2023-04-27T00:05:20.407Z,1856.00
2023-04-27T00:06:20.424Z,1862.00
2023-04-27T00:07:20.431Z,1853.00
2023-04-27T00:08:20.471Z,1859.00
2023-04-27T00:09:20.545Z,1862.00
2023-04-27T00:10:20.712Z,1856.00
2023-04-27T00:11:20.610Z,1864.00
2023-04-27T00:12:20.679Z,1869.00
2023-04-27T00:13:20.728Z,1858.00
2023-04-27T00:14:20.749Z,1860.00
2023-04-27T00:15:20.782Z,1838.00
2023-04-27T00:16:20.865Z,1855.00
2023-04-27T00:17:20.909Z,1848.00
2023-04-27T00:18:20.922Z,1843.00
2023-04-27T00:19:20.972Z,1843.00
2023-04-27T00:20:21.028Z,1848.00
2023-04-27T00:21:21.094Z,1847.00
2023-04-27T00:22:21.117Z,1858.00
2023-04-27T00:23:21.209Z,1843.00
2023-04-27T00:24:21.208Z,1841.00
2023-04-27T00:25:21.261Z,1860.00
2023-04-27T00:26:21.292Z,1843.00
2023-04-27T00:27:21.358Z,1844.00
2023-04-27T00:28:21.391Z,1851.00
2023-04-27T00:29:21.433Z,1841.00
2023-04-27T00:30:21.471Z,1844.00
2023-04-27T00:31:21.566Z,1842.00
2023-04-27T00:32:21.617Z,1839.00
2023-04-27T00:33:21.600Z,1839.00
2023-04-27T00:34:21.650Z,1847.00
2023-04-27T00:35:21.712Z,1827.00
2023-04-27T00:36:21.738Z,1828.00
2023-04-27T00:37:21.798Z,1819.00
2023-04-27T00:38:21.842Z,1813.00
2023-04-27T00:39:21.889Z,1824.00
2023-04-27T00:40:21.951Z,1817.00
2023-04-27T00:41:22.005Z,1808.00
2023-04-27T00:42:22.028Z,1796.00
2023-04-27T00:43:22.077Z,1830.00
2023-04-27T00:44:22.132Z,1815.00
2023-04-27T00:45:22.168Z,1802.00
2023-04-27T00:46:22.274Z,1799.00
2023-04-27T00:47:22.299Z,1798.00
2023-04-27T00:48:22.325Z,1811.00
2023-04-27T00:49:22.357Z,1800.00
2023-04-27T00:50:22.447Z,1812.00
2023-04-27T00:51:22.502Z,1809.00
2023-04-27T00:52:22.529Z,1794.00
2023-04-27T00:53:22.576Z,1789.00
2023-04-27T00:54:22.620Z,1793.00
2023-04-27T00:55:22.612Z,1794.00
2023-04-27T00:56:22.590Z,1795.00
2023-04-27T00:57:22.576Z,1799.00
2023-04-27T00:58:22.557Z,1801.00
2023-04-27T00:59:22.538Z,1794.00
2023-04-27T01:00:22.537Z,1810.00
2023-04-27T01:01:22.564Z,1803.00
2023-04-27T01:02:22.538Z,1795.00
2023-04-27T01:03:22.559Z,1799.00
2023-04-27T01:04:22.626Z,1810.00
2023-04-27T01:05:22.511Z,1804.00
2023-04-27T01:06:22.542Z,1803.00
2023-04-27T01:07:22.611Z,1795.00
2023-04-27T01:08:22.641Z,1797.00
2023-04-27T01:09:22.708Z,1794.00
2023-04-27T01:10:22.745Z,1795.00
2023-04-27T01:11:22.797Z,1796.00
2023-04-27T01:12:22.813Z,1798.00
2023-04-27T01:13:22.847Z,1793.00
2023-04-27T01:14:22.859Z,1787.00
2023-04-27T01:15:22.893Z,1784.00
2023-04-27T01:16:23.001Z,1796.00
2023-04-27T01:17:23.055Z,1788.00
2023-04-27T01:18:23.064Z,1790.00
2023-04-27T01:19:23.105Z,1777.00
2023-04-27T01:20:23.181Z,1789.00
2023-04-27T01:21:23.231Z,1785.00
2023-04-27T01:22:23.294Z,1786.00
2023-04-27T01:23:23.344Z,1775.00
2023-04-27T01:24:23.415Z,1771.00
2023-04-27T01:25:23.419Z,1762.00
2023-04-27T01:26:23.458Z,1764.00
2023-04-27T01:27:23.515Z,1774.00
2023-04-27T01:28:23.560Z,1769.00
2023-04-27T01:29:23.606Z,1780.00
2023-04-27T01:30:23.662Z,1766.00
2023-04-27T01:31:23.743Z,1772.00
2023-04-27T01:32:23.766Z,1762.00
2023-04-27T01:33:23.795Z,1754.00
2023-04-27T01:34:23.847Z,1759.00
2023-04-27T01:35:24.811Z,1779.00
2023-04-27T01:36:23.948Z,1776.00
2023-04-27T01:37:23.988Z,1786.00
2023-04-27T01:38:24.059Z,1790.00
2023-04-27T01:39:24.091Z,1771.00
2023-04-27T01:40:24.135Z,1768.00
2023-04-27T01:41:24.202Z,1778.00
2023-04-27T01:42:24.232Z,1786.00
2023-04-27T01:43:24.304Z,1777.00
2023-04-27T01:44:24.339Z,1771.00
2023-04-27T01:45:24.408Z,1777.00
2023-04-27T01:46:24.470Z,1777.00
2023-04-27T01:47:24.556Z,1759.00
2023-04-27T01:48:24.552Z,1764.00
2023-04-27T01:49:24.638Z,1750.00
2023-04-27T01:50:24.668Z,1760.00
2023-04-27T01:51:24.725Z,1747.00
2023-04-27T01:52:24.774Z,1747.00
2023-04-27T01:53:24.804Z,1764.00
2023-04-27T01:54:26.799Z,1744.00
2023-04-27T01:55:24.802Z,1763.00
2023-04-27T01:56:24.832Z,1754.00
2023-04-27T01:57:24.790Z,1764.00
2023-04-27T01:58:24.746Z,1756.00
2023-04-27T01:59:24.737Z,1754.00
2023-04-27T02:00:24.714Z,1749.00
2023-04-27T02:01:24.741Z,1746.00
2023-04-27T02:02:24.824Z,1734.00
2023-04-27T02:03:24.789Z,1730.00
2023-04-27T02:04:24.841Z,1724.00
2023-04-27T02:05:24.661Z,1722.00
2023-04-27T02:06:24.618Z,1738.00
2023-04-27T02:07:24.620Z,1729.00
2023-04-27T02:08:24.605Z,1736.00
2023-04-27T02:09:24.573Z,1731.00
2023-04-27T02:10:24.558Z,1743.00
2023-04-27T02:11:24.549Z,1746.00
2023-04-27T02:12:24.523Z,1748.00
2023-04-27T02:13:24.502Z,1733.00
2023-04-27T02:14:24.496Z,1718.00
2023-04-27T02:15:24.474Z,1723.00
2023-04-27T02:16:24.515Z,1726.00
2023-04-27T02:17:24.511Z,1731.00
2023-04-27T02:18:24.419Z,1722.00
2023-04-27T02:19:24.404Z,1718.00
2023-04-27T02:20:24.404Z,1723.00
2023-04-27T02:21:24.373Z,1727.00
2023-04-27T02:22:24.369Z,1707.00
2023-04-27T02:23:24.367Z,1719.00
2023-04-27T02:24:24.333Z,1709.00
2023-04-27T02:25:24.325Z,1721.00
2023-04-27T02:26:24.307Z,1713.00
2023-04-27T02:27:24.284Z,1719.00
2023-04-27T02:28:24.262Z,1704.00
2023-04-27T02:29:24.314Z,1715.00
2023-04-27T02:30:24.386Z,1710.00
2023-04-27T02:31:24.476Z,1705.00
2023-04-27T02:32:24.495Z,1709.00
2023-04-27T02:33:24.527Z,1712.00
2023-04-27T02:34:24.613Z,1706.00
2023-04-27T02:35:24.672Z,1714.00
2023-04-27T02:36:24.723Z,1718.00
2023-04-27T02:37:24.772Z,1713.00
2023-04-27T02:38:24.850Z,1687.00
2023-04-27T02:39:24.906Z,1702.00
2023-04-27T02:40:24.986Z,1698.00
2023-04-27T02:41:25.014Z,1701.00
2023-04-27T02:42:25.078Z,1687.00
2023-04-27T02:43:25.123Z,1695.00
2023-04-27T02:44:25.173Z,1696.00
2023-04-27T02:45:25.228Z,1701.00
2023-04-27T02:46:25.330Z,1694.00
2023-04-27T02:47:25.372Z,1692.00
2023-04-27T02:48:25.483Z,1677.00
2023-04-27T02:49:25.471Z,1684.00
2023-04-27T02:50:25.517Z,1691.00
2023-04-27T02:51:25.504Z,1692.00
2023-04-27T02:52:25.477Z,1692.00
2023-04-27T02:53:25.488Z,1693.00
2023-04-27T02:54:25.490Z,1695.00
2023-04-27T02:55:25.452Z,1695.00
2023-04-27T02:56:25.496Z,1680.00
2023-04-27T02:57:25.441Z,1677.00
2023-04-27T02:58:25.506Z,1684.00
2023-04-27T02:59:25.383Z,1682.00
2023-04-27T03:00:25.793Z,1674.00
2023-04-27T03:01:25.558Z,1681.00
2023-04-27T03:02:25.574Z,1672.00
2023-04-27T03:03:25.722Z,1669.00
2023-04-27T03:04:25.778Z,1672.00
2023-04-27T03:05:25.672Z,1681.00
2023-04-27T03:06:25.738Z,1676.00
2023-04-27T03:07:25.788Z,1680.00
2023-04-27T03:08:25.853Z,1683.00
2023-04-27T03:09:25.892Z,1685.00
2023-04-27T03:10:25.958Z,1690.00
2023-04-27T03:11:25.985Z,1678.00
2023-04-27T03:12:26.068Z,1679.00
2023-04-27T03:13:26.115Z,1688.00
2023-04-27T03:14:26.196Z,1677.00
2023-04-27T03:15:26.235Z,1684.00
2023-04-27T03:16:26.318Z,1685.00
2023-04-27T03:17:26.393Z,1687.00
2023-04-27T03:18:26.401Z,1678.00
2023-04-27T03:19:26.450Z,1668.00
2023-04-27T03:20:26.506Z,1679.00
2023-04-27T03:21:26.555Z,1672.00
2023-04-27T03:22:26.587Z,1673.00
2023-04-27T03:23:26.634Z,1669.00
2023-04-27T03:24:26.679Z,1665.00
2023-04-27T03:25:26.687Z,1661.00
2023-04-27T03:26:26.768Z,1652.00
2023-04-27T03:27:26.737Z,1650.00
2023-04-27T03:28:26.732Z,1650.00
2023-04-27T03:29:26.698Z,1647.00
2023-04-27T03:30:26.714Z,1652.00
2023-04-27T03:31:26.692Z,1643.00
2023-04-27T03:32:26.681Z,1642.00
2023-04-27T03:33:26.639Z,1655.00
2023-04-27T03:34:26.628Z,1652.00
2023-04-27T03:35:26.619Z,1644.00
2023-04-27T03:36:26.624Z,1654.00
2023-04-27T03:37:26.612Z,1655.00
2023-04-27T03:38:26.707Z,1657.00
2023-04-27T03:39:26.572Z,1657.00
2023-04-27T03:40:26.589Z,1653.00
2023-04-27T03:41:26.557Z,1655.00
2023-04-27T03:42:26.549Z,1653.00
2023-04-27T03:43:26.569Z,1659.00
2023-04-27T03:44:26.545Z,1657.00
2023-04-27T03:45:26.527Z,1653.00
2023-04-27T03:46:26.539Z,1650.00
2023-04-27T03:47:26.516Z,1638.00
2023-04-27T03:48:26.480Z,1635.00
2023-04-27T03:49:26.475Z,1637.00
2023-04-27T03:50:27.549Z,1632.00
2023-04-27T03:51:26.566Z,1626.00
2023-04-27T03:52:26.626Z,1634.00
2023-04-27T03:53:26.688Z,1638.00
2023-04-27T03:54:26.737Z,1637.00
2023-04-27T03:55:26.811Z,1618.00
2023-04-27T03:56:26.843Z,1632.00
2023-04-27T03:57:26.876Z,1615.00
2023-04-27T03:58:26.918Z,1635.00
2023-04-27T03:59:26.952Z,1632.00
2023-04-27T04:00:26.937Z,1632.00
2023-04-27T04:01:26.915Z,1633.00
2023-04-27T04:02:27.077Z,1634.00
2023-04-27T04:03:27.013Z,1617.00
2023-04-27T04:04:27.000Z,1624.00
2023-04-27T04:05:26.868Z,1623.00
2023-04-27T04:06:26.820Z,1610.00
2023-04-27T04:07:26.796Z,1607.00
2023-04-27T04:08:26.779Z,1615.00
2023-04-27T04:09:26.752Z,1618.00
2023-04-27T04:10:26.820Z,1606.00
2023-04-27T04:11:26.843Z,1617.00
2023-04-27T04:12:26.870Z,1621.00
2023-04-27T04:13:26.932Z,1614.00
2023-04-27T04:14:26.955Z,1612.00
2023-04-27T04:15:26.992Z,1607.00
2023-04-27T04:16:27.076Z,1610.00
2023-04-27T04:17:27.093Z,1622.00
2023-04-27T04:18:27.086Z,1613.00
2023-04-27T04:19:27.089Z,1634.00
2023-04-27T04:20:27.109Z,1621.00
2023-04-27T04:21:27.135Z,1631.00
2023-04-27T04:22:27.154Z,1622.00
2023-04-27T04:23:27.155Z,1634.00
2023-04-27T04:24:27.183Z,1615.00
2023-04-27T04:25:27.209Z,1632.00
2023-04-27T04:26:27.221Z,1641.00
2023-04-27T04:27:27.228Z,1628.00
2023-04-27T04:28:27.258Z,1635.00
2023-04-27T04:29:27.258Z,1637.00
2023-04-27T04:30:27.262Z,1623.00
2023-04-27T04:31:27.329Z,1636.00
2023-04-27T04:32:27.326Z,1623.00
2023-04-27T04:33:27.311Z,1636.00
2023-04-27T04:34:27.341Z,1625.00
2023-04-27T04:35:27.351Z,1623.00
2023-04-27T04:36:27.362Z,1617.00
2023-04-27T04:37:27.381Z,1606.00
2023-04-27T04:38:27.372Z,1613.00
2023-04-27T04:39:27.383Z,1617.00
2023-04-27T04:40:27.386Z,1613.00
2023-04-27T04:41:27.377Z,1606.00
2023-04-27T04:42:27.402Z,1602.00
2023-04-27T04:43:27.418Z,1602.00
2023-04-27T04:44:27.455Z,1601.00
2023-04-27T04:45:27.452Z,1594.00
2023-04-27T04:46:27.521Z,1584.00
2023-04-27T04:47:27.554Z,1591.00
2023-04-27T04:48:27.565Z,1594.00
2023-04-27T04:49:27.596Z,1580.00
2023-04-27T04:50:27.639Z,1583.00
2023-04-27T04:51:27.672Z,1587.00
2023-04-27T04:52:27.769Z,1566.00
2023-04-27T04:53:27.754Z,1574.00
2023-04-27T04:54:27.798Z,1578.00
2023-04-27T04:55:27.842Z,1579.00
2023-04-27T04:56:27.869Z,1585.00
2023-04-27T04:57:27.980Z,1576.00
2023-04-27T04:58:28.033Z,1576.00
2023-04-27T04:59:28.586Z,1577.00
2023-04-27T05:00:27.855Z,1581.00
2023-04-27T05:01:27.898Z,1582.00
2023-04-27T05:02:27.930Z,1592.00
2023-04-27T05:03:27.901Z,1580.00
2023-04-27T05:04:27.933Z,1592.00
2023-04-27T05:05:27.766Z,1592.00
2023-04-27T05:06:27.745Z,1583.00
2023-04-27T05:07:27.792Z,1589.00
2023-04-27T05:08:27.882Z,1593.00
2023-04-27T05:09:27.923Z,1597.00
2023-04-27T05:10:27.964Z,1604.00
2023-04-27T05:11:28.005Z,1609.00
2023-04-27T05:12:28.037Z,1608.00
2023-04-27T05:13:28.098Z,1604.00
2023-04-27T05:14:28.134Z,1618.00
2023-04-27T05:15:28.191Z,1608.00
2023-04-27T05:16:28.253Z,1603.00
2023-04-27T05:17:28.305Z,1620.00
2023-04-27T05:18:28.289Z,1612.00
2023-04-27T05:19:28.293Z,1595.00
2023-04-27T05:20:28.321Z,1615.00
2023-04-27T05:21:28.312Z,1604.00
2023-04-27T05:22:28.353Z,1616.00
2023-04-27T05:23:28.387Z,1605.00
2023-04-27T05:24:28.380Z,1606.00
2023-04-27T05:25:28.353Z,1606.00
2023-04-27T05:26:28.836Z,1610.00
2023-04-27T05:27:28.327Z,1618.00
2023-04-27T05:28:28.337Z,1637.00
2023-04-27T05:29:28.358Z,1619.00
2023-04-27T05:30:28.287Z,1626.00
2023-04-27T05:31:28.245Z,1631.00
2023-04-27T05:32:28.291Z,1640.00
2023-04-27T05:33:28.281Z,1647.00
2023-04-27T05:34:28.273Z,1637.00
2023-04-27T05:35:28.623Z,1670.00
2023-04-27T05:36:28.340Z,1706.00
2023-04-27T05:37:28.349Z,1768.00
2023-04-27T05:38:28.568Z,1844.00
2023-04-27T05:39:28.472Z,1884.00
2023-04-27T05:40:29.360Z,1919.00
2023-04-27T05:41:28.562Z,1957.00
2023-04-27T05:42:28.498Z,2005.00
2023-04-27T05:43:28.512Z,2082.00
2023-04-27T05:44:28.608Z,2164.00
2023-04-27T05:45:28.646Z,2131.00
2023-04-27T05:46:28.626Z,2162.00
2023-04-27T05:47:28.596Z,2209.00
2023-04-27T05:48:28.546Z,2273.00
2023-04-27T05:49:28.520Z,2335.00
2023-04-27T05:50:28.518Z,2357.00
2023-04-27T05:51:28.637Z,2405.00
2023-04-27T05:52:28.459Z,2481.00
2023-04-27T05:53:28.524Z,2478.00
2023-04-27T05:54:28.425Z,2538.00
2023-04-27T05:55:28.483Z,2572.00
2023-04-27T05:56:29.347Z,2608.00
2023-04-27T05:57:28.465Z,2660.00
2023-04-27T05:58:28.485Z,2705.00
2023-04-27T05:59:28.469Z,2718.00
2023-04-27T06:00:28.960Z,2769.00
2023-04-27T06:01:28.506Z,2789.00
2023-04-27T06:02:28.760Z,2827.00
2023-04-27T06:03:28.709Z,2845.00
2023-04-27T06:04:28.705Z,2880.00
2023-04-27T06:05:28.733Z,2899.00
2023-04-27T06:06:28.683Z,2910.00
2023-04-27T06:07:28.708Z,2948.00
2023-04-27T06:08:28.785Z,3006.00
2023-04-27T06:09:28.796Z,3025.00
2023-04-27T06:10:28.879Z,3025.00
2023-04-27T06:11:28.884Z,3025.00
2023-04-27T06:12:28.900Z,3032.00
2023-04-27T06:13:29.056Z,3055.00
2023-04-27T06:14:29.013Z,3061.00
2023-04-27T06:15:28.961Z,3062.00
2023-04-27T06:16:28.985Z,3065.00
2023-04-27T06:17:28.919Z,3063.00
2023-04-27T06:18:29.011Z,3074.00
2023-04-27T06:19:28.806Z,3089.00
2023-04-27T06:20:29.016Z,3100.00
2023-04-27T06:21:28.789Z,3070.00
2023-04-27T06:22:28.740Z,2890.00
2023-04-27T06:23:28.744Z,2901.00
2023-04-27T06:24:28.739Z,2903.00
2023-04-27T06:25:29.360Z,2905.00
2023-04-27T06:26:28.716Z,2902.00
2023-04-27T06:27:28.622Z,2913.00
2023-04-27T06:28:29.413Z,2905.00
2023-04-27T06:29:30.411Z,2925.00
2023-04-27T06:30:29.378Z,2906.00
2023-04-27T06:31:28.590Z,2855.00
2023-04-27T06:32:28.526Z,2864.00
2023-04-27T06:33:28.504Z,2896.00
2023-04-27T06:34:28.505Z,2881.00
2023-04-27T06:35:28.566Z,2901.00
2023-04-27T06:36:28.507Z,2902.00
2023-04-27T06:37:28.529Z,2905.00
2023-04-27T06:38:28.440Z,2903.00
2023-04-27T06:39:28.374Z,2905.00
2023-04-27T06:40:28.357Z,2901.00
2023-04-27T06:41:28.433Z,2879.00
2023-04-27T06:42:28.295Z,2888.00
2023-04-27T06:43:28.175Z,2898.00
2023-04-27T06:44:28.137Z,2901.00
2023-04-27T06:45:28.076Z,2959.00
2023-04-27T06:46:28.155Z,2959.00
2023-04-27T06:47:27.964Z,2961.00
2023-04-27T06:48:27.939Z,2968.00
2023-04-27T06:49:27.946Z,2985.00
2023-04-27T06:50:27.954Z,2998.00
2023-04-27T06:51:27.800Z,2992.00
2023-04-27T06:52:27.695Z,2986.00
2023-04-27T06:53:27.663Z,2974.00
2023-04-27T06:54:27.635Z,2993.00
2023-04-27T06:55:27.619Z,2966.00
2023-04-27T06:56:27.539Z,2948.00
2023-04-27T06:57:27.506Z,2960.00
2023-04-27T06:58:28.438Z,2924.00
2023-04-27T06:59:27.482Z,2899.00
2023-04-27T07:00:27.570Z,2879.00
2023-04-27T07:01:27.555Z,2874.00
2023-04-27T07:02:27.663Z,2866.00
2023-04-27T07:03:27.602Z,2808.00
2023-04-27T07:04:27.662Z,2815.00
2023-04-27T07:05:27.558Z,2807.00
2023-04-27T07:06:27.528Z,2744.00
2023-04-27T07:07:27.579Z,2703.00
2023-04-27T07:08:27.562Z,2654.00
2023-04-27T07:09:28.047Z,2679.00
2023-04-27T07:10:27.484Z,2646.00
2023-04-27T07:11:27.450Z,2656.00
2023-04-27T07:12:27.451Z,2623.00
2023-04-27T07:13:27.475Z,2642.00
2023-04-27T07:14:27.390Z,2643.00
2023-04-27T07:15:27.341Z,2558.00
2023-04-27T07:16:27.510Z,2501.00
2023-04-27T07:17:27.274Z,2442.00
2023-04-27T07:18:27.205Z,2381.00
2023-04-27T07:19:27.181Z,2388.00
2023-04-27T07:20:27.139Z,2359.00
2023-04-27T07:21:27.143Z,2308.00
2023-04-27T07:22:27.250Z,2255.00
2023-04-27T07:23:27.885Z,2273.00
2023-04-27T07:24:27.051Z,2282.00
2023-04-27T07:25:26.923Z,2303.00
2023-04-27T07:26:26.955Z,2325.00
2023-04-27T07:27:26.931Z,2317.00
2023-04-27T07:28:26.796Z,2268.00
2023-04-27T07:29:27.697Z,2261.00
2023-04-27T07:30:26.794Z,2227.00
2023-04-27T07:31:26.944Z,2255.00
2023-04-27T07:32:26.924Z,2242.00
2023-04-27T07:33:26.912Z,2295.00
2023-04-27T07:34:35.053Z,2412.00
2023-04-27T07:35:27.937Z,2414.00
2023-04-27T07:36:26.773Z,2421.00
2023-04-27T07:37:26.754Z,2434.00
2023-04-27T07:38:26.780Z,2448.00
2023-04-27T07:39:26.661Z,2523.00
2023-04-27T07:40:26.609Z,2534.00
2023-04-27T07:41:26.566Z,2534.00
2023-04-27T07:42:26.507Z,2537.00
2023-04-27T07:43:26.512Z,2454.00
2023-04-27T07:44:26.506Z,2355.00
2023-04-27T07:45:26.469Z,2289.00
2023-04-27T07:46:26.521Z,2249.00
2023-04-27T07:47:26.349Z,2236.00
2023-04-27T07:48:26.348Z,2188.00
2023-04-27T07:49:26.248Z,2143.00
2023-04-27T07:50:26.208Z,2124.00
2023-04-27T07:51:26.184Z,2036.00
2023-04-27T07:52:26.148Z,1970.00
2023-04-27T07:53:26.110Z,1937.00
2023-04-27T07:54:26.099Z,1920.00
2023-04-27T07:55:26.131Z,1948.00
2023-04-27T07:56:26.166Z,1966.00
2023-04-27T07:57:26.211Z,1946.00
2023-04-27T07:58:26.199Z,1947.00
2023-04-27T07:59:26.235Z,1963.00
2023-04-27T08:00:26.382Z,1988.00
2023-04-27T08:01:26.413Z,1919.00
2023-04-27T08:02:26.407Z,1905.00
2023-04-27T08:03:26.540Z,1853.00
2023-04-27T08:04:26.526Z,1854.00
2023-04-27T08:05:26.697Z,1805.00
2023-04-27T08:06:26.848Z,1818.00
2023-04-27T08:07:27.013Z,1832.00
2023-04-27T08:08:26.549Z,1844.00
2023-04-27T08:09:27.417Z,1859.00
2023-04-27T08:10:26.507Z,1849.00
2023-04-27T08:11:26.514Z,1858.00
2023-04-27T08:12:26.536Z,1837.00
2023-04-27T08:13:26.568Z,1802.00
2023-04-27T08:14:26.584Z,1838.00
2023-04-27T08:15:26.607Z,1816.00
2023-04-27T08:16:26.698Z,1784.00
2023-04-27T08:17:26.673Z,1831.00
2023-04-27T08:18:26.696Z,1854.00
2023-04-27T08:19:26.719Z,1835.00
2023-04-27T08:20:26.753Z,1867.00
2023-04-27T08:21:26.772Z,1836.00
2023-04-27T08:22:26.839Z,1828.00
2023-04-27T08:23:26.810Z,1821.00
2023-04-27T08:24:26.835Z,1826.00
2023-04-27T08:25:26.862Z,1851.00
2023-04-27T08:26:26.890Z,1856.00
2023-04-27T08:27:26.926Z,1839.00
2023-04-27T08:28:26.949Z,1853.00
2023-04-27T08:29:28.764Z,1938.00
2023-04-27T08:30:27.011Z,1996.00
2023-04-27T08:31:27.049Z,2034.00
2023-04-27T08:32:27.066Z,2081.00
2023-04-27T08:33:27.102Z,2158.00
2023-04-27T08:34:27.067Z,2171.00
2023-04-27T08:35:27.081Z,2116.00
2023-04-27T08:36:27.055Z,2117.00
2023-04-27T08:37:27.007Z,2098.00
2023-04-27T08:38:26.966Z,2090.00
2023-04-27T08:39:26.918Z,2040.00
2023-04-27T08:40:26.907Z,2008.00
2023-04-27T08:41:26.853Z,1967.00
2023-04-27T08:42:26.884Z,1970.00
2023-04-27T08:43:26.799Z,1944.00
2023-04-27T08:44:26.749Z,1932.00
2023-04-27T08:45:26.729Z,1911.00
2023-04-27T08:46:26.738Z,1870.00
2023-04-27T08:47:35.114Z,1936.00
2023-04-27T08:48:27.732Z,1937.00
2023-04-27T08:49:26.678Z,1938.00
2023-04-27T08:50:26.720Z,1985.00
2023-04-27T08:51:26.630Z,2249.00
2023-04-27T08:52:26.526Z,2425.00
2023-04-27T08:53:26.503Z,2359.00
2023-04-27T08:54:26.469Z,2327.00
2023-04-27T08:55:26.434Z,2347.00
2023-04-27T08:56:26.404Z,2366.00
2023-04-27T08:57:26.411Z,2371.00
2023-04-27T08:58:26.385Z,2363.00
2023-04-27T08:59:26.384Z,2381.00
2023-04-27T09:00:26.491Z,2424.00
2023-04-27T09:01:26.440Z,2457.00
2023-04-27T09:02:26.423Z,2495.00
2023-04-27T09:03:26.559Z,2498.00
2023-04-27T09:04:26.496Z,2512.00
2023-04-27T09:05:26.376Z,2519.00
2023-04-27T09:06:26.395Z,2520.00
2023-04-27T09:07:28.548Z,2533.00
2023-04-27T09:08:26.398Z,2559.00
2023-04-27T09:09:26.399Z,2541.00
2023-04-27T09:10:26.396Z,2498.00
2023-04-27T09:11:26.546Z,2453.00
2023-04-27T09:12:26.394Z,2385.00
2023-04-27T09:13:26.400Z,2350.00
2023-04-27T09:14:26.400Z,2278.00
2023-04-27T09:15:26.404Z,2225.00
2023-04-27T09:16:26.615Z,2174.00
2023-04-27T09:17:26.521Z,2144.00
2023-04-27T09:18:26.441Z,2014.00
2023-04-27T09:19:26.482Z,1992.00
2023-04-27T09:20:26.482Z,1979.00
2023-04-27T09:21:26.521Z,1930.00
2023-04-27T09:22:26.527Z,1927.00
2023-04-27T09:23:26.531Z,1896.00
2023-04-27T09:24:26.558Z,1879.00
2023-04-27T09:25:26.587Z,1877.00
2023-04-27T09:26:26.591Z,1863.00
2023-04-27T09:27:26.631Z,1865.00
2023-04-27T09:28:27.452Z,1858.00
2023-04-27T09:29:26.681Z,1830.00
2023-04-27T09:30:26.756Z,1805.00
2023-04-27T09:31:26.741Z,1788.00
2023-04-27T09:32:26.932Z,1782.00
2023-04-27T09:33:26.753Z,1783.00
2023-04-27T09:34:27.429Z,1729.00
2023-04-27T09:35:26.672Z,1712.00
2023-04-27T09:36:26.548Z,1417.00
2023-04-27T09:37:26.520Z,1249.00
2023-04-27T09:38:26.993Z,1328.00
2023-04-27T09:39:26.463Z,1422.00
2023-04-27T09:40:26.420Z,1518.00
2023-04-27T09:41:26.422Z,1609.00
2023-04-27T09:42:26.462Z,1642.00
2023-04-27T09:43:26.475Z,1659.00
2023-04-27T09:44:26.470Z,1670.00
2023-04-27T09:45:26.474Z,1671.00
2023-04-27T09:46:26.591Z,1689.00
2023-04-27T09:47:26.430Z,1773.00
2023-04-27T09:48:26.308Z,1951.00
2023-04-27T09:49:26.273Z,2195.00
2023-04-27T09:50:26.228Z,2281.00
2023-04-27T09:51:26.233Z,2300.00
2023-04-27T09:52:26.170Z,2309.00
2023-04-27T09:53:26.952Z,2269.00
2023-04-27T09:54:26.198Z,2213.00
2023-04-27T09:55:26.082Z,2204.00
2023-04-27T09:56:26.039Z,2239.00
2023-04-27T09:57:26.067Z,2233.00
2023-04-27T09:58:26.210Z,2251.00
2023-04-27T09:59:26.114Z,2260.00
2023-04-27T10:00:26.143Z,2242.00
2023-04-27T10:01:26.206Z,2239.00
2023-04-27T10:02:26.201Z,2211.00
2023-04-27T10:03:26.219Z,2164.00
2023-04-27T10:04:26.382Z,2119.00
2023-04-27T10:05:26.282Z,2109.00
2023-04-27T10:06:26.289Z,2116.00
2023-04-27T10:07:26.299Z,2111.00
2023-04-27T10:08:26.313Z,2119.00
2023-04-27T10:09:26.343Z,2131.00
2023-04-27T10:10:26.318Z,2128.00
2023-04-27T10:11:26.274Z,2133.00
2023-04-27T10:12:26.255Z,2132.00
2023-04-27T10:13:26.246Z,2131.00
2023-04-27T10:14:26.162Z,2109.00
2023-04-27T10:15:26.149Z,2094.00
2023-04-27T10:16:26.130Z,2102.00
2023-04-27T10:17:26.126Z,2084.00
2023-04-27T10:18:26.135Z,2072.00
2023-04-27T10:19:26.016Z,2053.00
2023-04-27T10:20:26.986Z,2006.00
2023-04-27T10:21:25.936Z,1975.00
2023-04-27T10:22:25.971Z,1944.00
2023-04-27T10:23:25.985Z,1938.00
2023-04-27T10:24:26.112Z,1954.00
2023-04-27T10:25:26.022Z,1919.00
2023-04-27T10:26:26.177Z,1897.00
2023-04-27T10:27:26.079Z,1882.00
2023-04-27T10:28:26.085Z,1881.00
2023-04-27T10:29:26.098Z,1844.00
2023-04-27T10:30:26.133Z,1828.00
2023-04-27T10:31:26.217Z,1807.00
2023-04-27T10:32:26.331Z,1796.00
2023-04-27T10:33:26.177Z,1784.00
2023-04-27T10:34:26.200Z,1781.00
2023-04-27T10:35:26.243Z,1800.00
2023-04-27T10:36:26.488Z,1793.00
2023-04-27T10:37:26.724Z,1787.00
2023-04-27T10:38:26.333Z,1761.00
2023-04-27T10:39:39.753Z,1737.00
2023-04-27T10:40:27.308Z,1737.00
2023-04-27T10:41:26.285Z,1737.00
2023-04-27T10:42:26.247Z,1742.00
2023-04-27T10:43:26.214Z,1700.00
2023-04-27T10:44:26.185Z,1643.00
2023-04-27T10:45:27.055Z,1649.00
2023-04-27T10:46:26.210Z,1651.00
2023-04-27T10:47:26.118Z,1656.00
2023-04-27T10:48:26.081Z,1660.00
2023-04-27T10:49:26.066Z,1659.00
2023-04-27T10:50:26.033Z,1669.00
2023-04-27T10:51:25.997Z,1632.00
2023-04-27T10:52:25.971Z,1630.00
2023-04-27T10:53:25.934Z,1581.00
2023-04-27T10:54:25.900Z,1621.00
2023-04-27T10:55:25.884Z,1593.00
2023-04-27T10:56:25.834Z,1611.00
2023-04-27T10:57:25.803Z,1619.00
2023-04-27T10:58:34.682Z,1624.00
2023-04-27T10:59:26.780Z,1624.00
2023-04-27T11:00:25.812Z,1611.00
2023-04-27T11:01:25.859Z,1604.00
2023-04-27T11:02:28.648Z,1597.00
2023-04-27T11:03:25.857Z,1600.00
2023-04-27T11:04:25.619Z,1624.00
2023-04-27T11:05:25.614Z,1611.00
2023-04-27T11:06:25.545Z,1626.00
2023-04-27T11:07:25.547Z,1542.00
2023-04-27T11:08:25.478Z,1549.00
2023-04-27T11:09:25.477Z,1565.00
2023-04-27T11:10:25.415Z,1557.00
2023-04-27T11:11:25.439Z,1563.00
2023-04-27T11:12:25.409Z,1578.00
2023-04-27T11:13:25.316Z,1600.00
2023-04-27T11:14:25.316Z,1567.00
2023-04-27T11:15:25.345Z,1546.00
2023-04-27T11:16:25.470Z,1531.00
2023-04-27T11:17:25.388Z,1527.00
2023-04-27T11:18:25.427Z,1523.00
2023-04-27T11:19:25.392Z,1547.00
2023-04-27T11:20:25.431Z,1517.00
2023-04-27T11:21:25.426Z,1524.00
2023-04-27T11:22:25.995Z,1523.00
2023-04-27T11:23:25.468Z,1543.00
2023-04-27T11:24:25.552Z,1549.00
2023-04-27T11:25:25.531Z,1533.00
2023-04-27T11:26:25.502Z,1522.00
2023-04-27T11:27:25.560Z,1530.00
2023-04-27T11:28:25.547Z,1521.00
2023-04-27T11:29:25.650Z,1519.00
2023-04-27T11:30:25.655Z,1503.00
2023-04-27T11:31:26.103Z,1505.00
2023-04-27T11:32:25.602Z,1478.00
2023-04-27T11:33:25.616Z,1488.00
2023-04-27T11:34:25.615Z,1481.00
2023-04-27T11:35:25.630Z,1475.00
2023-04-27T11:36:25.655Z,1455.00
2023-04-27T11:37:25.693Z,1452.00
2023-04-27T11:38:25.710Z,1452.00
2023-04-27T11:39:26.541Z,1453.00
2023-04-27T11:40:25.631Z,1454.00
2023-04-27T11:41:25.569Z,1454.00
2023-04-27T11:42:25.548Z,1440.00
2023-04-27T11:43:25.499Z,1431.00
2023-04-27T11:44:25.471Z,1458.00
2023-04-27T11:45:25.425Z,1436.00
2023-04-27T11:46:25.423Z,1437.00
2023-04-27T11:47:25.430Z,1441.00
2023-04-27T11:48:25.339Z,1440.00
2023-04-27T11:49:25.291Z,1404.00
2023-04-27T11:50:25.283Z,1404.00
2023-04-27T11:51:25.238Z,1411.00
2023-04-27T11:52:25.194Z,1404.00
2023-04-27T11:53:25.142Z,1409.00
2023-04-27T11:54:25.108Z,1398.00
2023-04-27T11:55:25.078Z,1397.00
2023-04-27T11:56:25.069Z,1397.00
2023-04-27T11:57:25.109Z,1402.00
2023-04-27T11:58:25.046Z,1401.00
2023-04-27T11:59:25.127Z,1396.00
2023-04-27T12:00:25.118Z,1392.00
2023-04-27T12:01:37.052Z,1389.00
2023-04-27T12:02:26.645Z,1390.00
2023-04-27T12:03:25.179Z,1390.00
2023-04-27T12:04:25.205Z,1375.00
2023-04-27T12:05:25.043Z,1382.00